Mountain Home, AR (72654)

4:34 AM CST on February 12, 2016 (GMT -0600)
Tank Rea Insurance Agency, Inc. | | Change Station
CLOSE
Current Station
Personal Weather Station
Location: Mountain Home, AR
Elevation: 797 ft
Nearby Weather Stations

Elev 797 ft 36.33 °N, 92.38 °W | Updated 3 seconds ago

Clear
Clear
29.7 °F
Feels Like 30 °F
N
0.0
Wind Variable Wind from NNW
Gusts 0.0 mph

Today
High -- | Low -- °F
--% Chance of Precip.
Yesterday
High -- | Low -- °F
Precip. -- in
Pressure 30.15 in
Visibility 9.0 miles
Clouds Clear
Windchill 30 °F
Dew Point Not available.
Humidity Not available.
Rainfall 0.00 in
Snow Depth Not available.
7:00 AM 5:47 PM
Waxing Crescent, 19% visible
METAR KBPK 120953Z AUTO 00000KT 9SM CLR M01/M06 A3014 RMK AO2 SLP209 T10111056
Pressure 30.15 in
Visibility 9.0 miles
Clouds Clear
Windchill 30 °F
Dew Point Not available.
Humidity Not available.
Rainfall 0.00 in
Snow Depth Not available.
7:00 AM 5:47 PM
Waxing Crescent, 19% visible
METAR KBPK 120953Z AUTO 00000KT 9SM CLR M01/M06 A3014 RMK AO2 SLP209 T10111056

10-Day Weather Forecast

Almanac

Astronomy

Feb. 12, 2016 Rise Set
Actual Time
Civil Twilight
Nautical Twilight
Astronomical Twilight
Moon
Length of Visible Light
Length of Day
Tomorrow will be .
, % of the Moon is Illuminated

Today's Extremes

State Highs State Lows

Community

WunderPhotos

Upload Photos

1,892,289 photos uploaded!

WunderBlog® & News

Nearby

Air Quality

  Air Quality AQ Index Pollutant
Not available.

Snow Depth

Station Depth Elevation

Earthquake Activity

City Distance Mag. Time & Date
Minimum magnitude displayed is 2.5.

Coastal Water Temperatures

Place Temperature

Stations

Nearby Weather Stations

Station Location Temp. Windchill Dew Point Humidity Wind Precip. Elev Updated Type
                   

Watches & Warnings

There are currently no watches in effect.